sensor_id;sensor_type;location;lat;lon;timestamp;pressure;altitude;pressure_sealevel;temperature;humidity
61573;BME280;47465;43.094;12.434;2024-03-29T00:02:13;98350.19;;;14.22;100.00
61573;BME280;47465;43.094;12.434;2024-03-29T00:04:41;98358.16;;;14.24;100.00
61573;BME280;47465;43.094;12.434;2024-03-29T00:07:07;98294.09;;;13.84;100.00
61573;BME280;47465;43.094;12.434;2024-03-29T00:09:37;98297.28;;;13.92;100.00
61573;BME280;47465;43.094;12.434;2024-03-29T00:12:03;98256.63;;;13.67;100.00
61573;BME280;47465;43.094;12.434;2024-03-29T00:14:31;98376.19;;;14.37;100.00
61573;BME280;47465;43.094;12.434;2024-03-29T00:16:57;98385.22;;;14.35;100.00
61573;BME280;47465;43.094;12.434;2024-03-29T00:19:23;98323.50;;;14.03;100.00
61573;BME280;47465;43.094;12.434;2024-03-29T00:21:50;98309.91;;;13.89;100.00
61573;BME280;47465;43.094;12.434;2024-03-29T00:24:25;98379.75;;;14.38;100.00
61573;BME280;47465;43.094;12.434;2024-03-29T00:26:51;98377.22;;;14.35;100.00
61573;BME280;47465;43.094;12.434;2024-03-29T00:29:17;98297.19;;;13.94;100.00
61573;BME280;47465;43.094;12.434;2024-03-29T00:31:44;98351.09;;;14.23;100.00
61573;BME280;47465;43.094;12.434;2024-03-29T00:34:11;98259.81;;;13.56;100.00
61573;BME280;47465;43.094;12.434;2024-03-29T00:36:40;98388.94;;;14.32;100.00
61573;BME280;47465;43.094;12.434;2024-03-29T00:39:08;98393.59;;;14.46;100.00
61573;BME280;47465;43.094;12.434;2024-03-29T00:41:37;98381.19;;;14.45;100.00
61573;BME280;47465;43.094;12.434;2024-03-29T00:44:03;98306.16;;;14.12;100.00
61573;BME280;47465;43.094;12.434;2024-03-29T00:46:29;98260.50;;;13.79;100.00
61573;BME280;47465;43.094;12.434;2024-03-29T00:48:55;98272.16;;;13.77;100.00
61573;BME280;47465;43.094;12.434;2024-03-29T00:51:21;98391.94;;;14.44;100.00
61573;BME280;47465;43.094;12.434;2024-03-29T00:53:47;98345.75;;;14.23;100.00
61573;BME280;47465;43.094;12.434;2024-03-29T00:56:16;98321.28;;;14.11;100.00
61573;BME280;47465;43.094;12.434;2024-03-29T00:58:42;98385.97;;;14.57;100.00
61573;BME280;47465;43.094;12.434;2024-03-29T01:01:08;98279.66;;;13.88;100.00
61573;BME280;47465;43.094;12.434;2024-03-29T01:03:34;98276.31;;;13.83;100.00
61573;BME280;47465;43.094;12.434;2024-03-29T01:06:04;98274.72;;;13.79;100.00
61573;BME280;47465;43.094;12.434;2024-03-29T01:08:29;98396.16;;;14.49;100.00
61573;BME280;47465;43.094;12.434;2024-03-29T01:10:56;98399.69;;;14.50;100.00
61573;BME280;47465;43.094;12.434;2024-03-29T01:13:24;98371.97;;;14.14;100.00
61573;BME280;47465;43.094;12.434;2024-03-29T01:15:51;98409.88;;;14.42;100.00
61573;BME280;47465;43.094;12.434;2024-03-29T01:18:17;98295.91;;;13.84;100.00
61573;BME280;47465;43.094;12.434;2024-03-29T01:20:43;98423.34;;;14.40;100.00
61573;BME280;47465;43.094;12.434;2024-03-29T01:23:09;98414.94;;;14.48;100.00
61573;BME280;47465;43.094;12.434;2024-03-29T01:25:35;98376.25;;;14.18;100.00
61573;BME280;47465;43.094;12.434;2024-03-29T01:28:06;98436.56;;;14.43;100.00
61573;BME280;47465;43.094;12.434;2024-03-29T01:30:34;98420.00;;;14.54;100.00
61573;BME280;47465;43.094;12.434;2024-03-29T01:33:00;98425.50;;;14.51;100.00
61573;BME280;47465;43.094;12.434;2024-03-29T01:35:26;98430.66;;;14.55;100.00
61573;BME280;47465;43.094;12.434;2024-03-29T01:37:52;98382.50;;;14.17;100.00
61573;BME280;47465;43.094;12.434;2024-03-29T01:40:20;98432.31;;;14.39;100.00
61573;BME280;47465;43.094;12.434;2024-03-29T01:42:46;98291.59;;;13.62;100.00
61573;BME280;47465;43.094;12.434;2024-03-29T01:45:12;98429.63;;;14.39;100.00
61573;BME280;47465;43.094;12.434;2024-03-29T01:47:39;98427.75;;;14.41;100.00
61573;BME280;47465;43.094;12.434;2024-03-29T01:50:09;98435.59;;;14.44;100.00
61573;BME280;47465;43.094;12.434;2024-03-29T01:52:35;98390.69;;;14.14;100.00
61573;BME280;47465;43.094;12.434;2024-03-29T01:55:01;98428.53;;;14.43;100.00
61573;BME280;47465;43.094;12.434;2024-03-29T01:57:27;98335.28;;;13.80;100.00
61573;BME280;47465;43.094;12.434;2024-03-29T01:59:54;98431.22;;;14.43;100.00
61573;BME280;47465;43.094;12.434;2024-03-29T02:02:20;98302.41;;;13.78;100.00
61573;BME280;47465;43.094;12.434;2024-03-29T02:04:50;98434.63;;;14.47;100.00
61573;BME280;47465;43.094;12.434;2024-03-29T02:07:17;98419.16;;;14.34;100.00
61573;BME280;47465;43.094;12.434;2024-03-29T02:09:45;98309.28;;;13.84;100.00
61573;BME280;47465;43.094;12.434;2024-03-29T02:12:13;98298.09;;;13.75;100.00
61573;BME280;47465;43.094;12.434;2024-03-29T02:14:39;98341.53;;;13.98;100.00
61573;BME280;47465;43.094;12.434;2024-03-29T02:17:09;98314.25;;;13.91;100.00
61573;BME280;47465;43.094;12.434;2024-03-29T02:19:35;98429.78;;;14.55;100.00
61573;BME280;47465;43.094;12.434;2024-03-29T02:22:05;98387.06;;;14.15;100.00
61573;BME280;47465;43.094;12.434;2024-03-29T02:24:35;98354.97;;;13.96;100.00
61573;BME280;47465;43.094;12.434;2024-03-29T02:27:01;98374.06;;;14.08;100.00
61573;BME280;47465;43.094;12.434;2024-03-29T02:29:29;98400.59;;;14.31;100.00
61573;BME280;47465;43.094;12.434;2024-03-29T02:31:56;98423.97;;;14.45;100.00
61573;BME280;47465;43.094;12.434;2024-03-29T02:34:22;98431.78;;;14.50;100.00
61573;BME280;47465;43.094;12.434;2024-03-29T02:36:51;98364.09;;;14.11;100.00
61573;BME280;47465;43.094;12.434;2024-03-29T02:39:26;98325.22;;;13.85;100.00
61573;BME280;47465;43.094;12.434;2024-03-29T02:41:54;98322.94;;;13.77;100.00
61573;BME280;47465;43.094;12.434;2024-03-29T02:44:20;98325.81;;;13.73;100.00
61573;BME280;47465;43.094;12.434;2024-03-29T02:46:47;98309.34;;;13.63;100.00
61573;BME280;47465;43.094;12.434;2024-03-29T02:49:12;98317.34;;;13.63;100.00
61573;BME280;47465;43.094;12.434;2024-03-29T02:51:39;98443.06;;;14.37;100.00
61573;BME280;47465;43.094;12.434;2024-03-29T02:54:05;98373.06;;;13.91;100.00
61573;BME280;47465;43.094;12.434;2024-03-29T02:56:31;98449.44;;;14.35;100.00
61573;BME280;47465;43.094;12.434;2024-03-29T02:59:00;98449.03;;;14.25;100.00
61573;BME280;47465;43.094;12.434;2024-03-29T03:04:10;98340.09;;;13.53;100.00
61573;BME280;47465;43.094;12.434;2024-03-29T03:06:37;98463.69;;;14.16;100.00
61573;BME280;47465;43.094;12.434;2024-03-29T03:09:03;98393.34;;;13.76;100.00
61573;BME280;47465;43.094;12.434;2024-03-29T03:12:02;98466.41;;;14.15;100.00
61573;BME280;47465;43.094;12.434;2024-03-29T03:14:28;98468.16;;;14.16;100.00
61573;BME280;47465;43.094;12.434;2024-03-29T03:16:54;98472.06;;;14.28;100.00
61573;BME280;47465;43.094;12.434;2024-03-29T03:19:20;98469.34;;;14.29;100.00
61573;BME280;47465;43.094;12.434;2024-03-29T03:21:47;98357.28;;;13.47;100.00
61573;BME280;47465;43.094;12.434;2024-03-29T03:24:13;98455.00;;;14.11;100.00
61573;BME280;47465;43.094;12.434;2024-03-29T03:26:39;98336.72;;;13.49;100.00
61573;BME280;47465;43.094;12.434;2024-03-29T03:29:07;98486.25;;;14.30;100.00
61573;BME280;47465;43.094;12.434;2024-03-29T03:31:36;98471.13;;;14.29;100.00
61573;BME280;47465;43.094;12.434;2024-03-29T03:34:02;98468.25;;;14.14;100.00
61573;BME280;47465;43.094;12.434;2024-03-29T03:36:29;98356.31;;;13.48;100.00
61573;BME280;47465;43.094;12.434;2024-03-29T03:38:55;98431.34;;;13.83;100.00
61573;BME280;47465;43.094;12.434;2024-03-29T03:41:22;98475.81;;;14.05;100.00
61573;BME280;47465;43.094;12.434;2024-03-29T03:43:48;98484.34;;;14.13;100.00
61573;BME280;47465;43.094;12.434;2024-03-29T03:46:15;98416.69;;;13.73;100.00
61573;BME280;47465;43.094;12.434;2024-03-29T03:48:41;98496.41;;;14.22;100.00
61573;BME280;47465;43.094;12.434;2024-03-29T03:51:07;98479.28;;;14.26;100.00
61573;BME280;47465;43.094;12.434;2024-03-29T03:53:33;98436.88;;;13.99;100.00
61573;BME280;47465;43.094;12.434;2024-03-29T03:55:59;98412.78;;;13.80;100.00
61573;BME280;47465;43.094;12.434;2024-03-29T03:58:25;98456.00;;;14.09;100.00
61573;BME280;47465;43.094;12.434;2024-03-29T04:00:51;98372.22;;;13.51;100.00
61573;BME280;47465;43.094;12.434;2024-03-29T04:03:19;98374.47;;;13.61;100.00
61573;BME280;47465;43.094;12.434;2024-03-29T04:05:45;98372.72;;;13.41;100.00
61573;BME280;47465;43.094;12.434;2024-03-29T04:08:10;98503.13;;;14.11;100.00
61573;BME280;47465;43.094;12.434;2024-03-29T04:10:38;98490.56;;;14.13;100.00
61573;BME280;47465;43.094;12.434;2024-03-29T04:13:04;98504.00;;;14.12;100.00
61573;BME280;47465;43.094;12.434;2024-03-29T04:15:30;98497.50;;;14.17;100.00
61573;BME280;47465;43.094;12.434;2024-03-29T04:17:59;98500.22;;;14.16;100.00
61573;BME280;47465;43.094;12.434;2024-03-29T04:20:30;98499.31;;;14.17;100.00
61573;BME280;47465;43.094;12.434;2024-03-29T04:22:56;98496.97;;;14.09;100.00
61573;BME280;47465;43.094;12.434;2024-03-29T04:25:23;98401.84;;;13.66;100.00
61573;BME280;47465;43.094;12.434;2024-03-29T04:27:52;98498.16;;;14.23;100.00
61573;BME280;47465;43.094;12.434;2024-03-29T04:30:18;98391.06;;;13.48;100.00
61573;BME280;47465;43.094;12.434;2024-03-29T04:32:43;98435.19;;;13.77;100.00
61573;BME280;47465;43.094;12.434;2024-03-29T04:35:12;98501.63;;;14.25;100.00
61573;BME280;47465;43.094;12.434;2024-03-29T04:37:39;98517.88;;;14.20;100.00
61573;BME280;47465;43.094;12.434;2024-03-29T04:40:09;98437.91;;;13.76;100.00
61573;BME280;47465;43.094;12.434;2024-03-29T04:42:41;98521.28;;;14.24;100.00
61573;BME280;47465;43.094;12.434;2024-03-29T04:45:07;98486.06;;;13.95;100.00
61573;BME280;47465;43.094;12.434;2024-03-29T04:47:33;98414.97;;;13.51;100.00
61573;BME280;47465;43.094;12.434;2024-03-29T04:50:00;98536.19;;;14.29;100.00
61573;BME280;47465;43.094;12.434;2024-03-29T04:52:29;98486.19;;;13.92;100.00
61573;BME280;47465;43.094;12.434;2024-03-29T04:55:00;98430.78;;;13.56;100.00
61573;BME280;47465;43.094;12.434;2024-03-29T04:57:34;98444.81;;;13.61;100.00
61573;BME280;47465;43.094;12.434;2024-03-29T05:00:00;98454.56;;;13.62;100.00
61573;BME280;47465;43.094;12.434;2024-03-29T05:02:29;98565.47;;;14.32;100.00
61573;BME280;47465;43.094;12.434;2024-03-29T05:04:56;98456.19;;;13.66;100.00
61573;BME280;47465;43.094;12.434;2024-03-29T05:07:24;98450.63;;;13.71;100.00
61573;BME280;47465;43.094;12.434;2024-03-29T05:10:10;98573.75;;;14.47;100.00
61573;BME280;47465;43.094;12.434;2024-03-29T05:12:39;98445.75;;;13.60;100.00
61573;BME280;47465;43.094;12.434;2024-03-29T05:15:05;98576.47;;;14.45;100.00
61573;BME280;47465;43.094;12.434;2024-03-29T05:17:32;98475.06;;;13.82;100.00
61573;BME280;47465;43.094;12.434;2024-03-29T05:19:58;98569.53;;;14.41;100.00
61573;BME280;47465;43.094;12.434;2024-03-29T05:22:24;98584.94;;;14.36;100.00
61573;BME280;47465;43.094;12.434;2024-03-29T05:24:56;98512.31;;;13.85;100.00
61573;BME280;47465;43.094;12.434;2024-03-29T05:27:22;98603.56;;;14.37;100.00
61573;BME280;47465;43.094;12.434;2024-03-29T05:29:50;98590.28;;;14.36;100.00
61573;BME280;47465;43.094;12.434;2024-03-29T05:32:22;98593.03;;;14.34;100.00
61573;BME280;47465;43.094;12.434;2024-03-29T05:34:52;98476.38;;;13.72;100.00
61573;BME280;47465;43.094;12.434;2024-03-29T05:37:18;98594.75;;;14.35;100.00
61573;BME280;47465;43.094;12.434;2024-03-29T05:39:48;98591.66;;;14.45;100.00
61573;BME280;47465;43.094;12.434;2024-03-29T05:42:16;98598.53;;;14.50;100.00
61573;BME280;47465;43.094;12.434;2024-03-29T05:44:45;98571.28;;;14.42;100.00
61573;BME280;47465;43.094;12.434;2024-03-29T05:47:16;98594.03;;;14.71;100.00
61573;BME280;47465;43.094;12.434;2024-03-29T05:49:45;98468.66;;;14.05;100.00
61573;BME280;47465;43.094;12.434;2024-03-29T05:52:11;98586.59;;;14.97;100.00
61573;BME280;47465;43.094;12.434;2024-03-29T05:54:51;98472.13;;;14.45;100.00
61573;BME280;47465;43.094;12.434;2024-03-29T05:57:27;98590.06;;;14.99;100.00
61573;BME280;47465;43.094;12.434;2024-03-29T05:59:56;98590.13;;;14.97;100.00
61573;BME280;47465;43.094;12.434;2024-03-29T06:02:26;98480.19;;;14.64;100.00
61573;BME280;47465;43.094;12.434;2024-03-29T06:04:54;98588.16;;;15.37;100.00
61573;BME280;47465;43.094;12.434;2024-03-29T06:07:20;98480.31;;;14.61;100.00
61573;BME280;47465;43.094;12.434;2024-03-29T06:09:46;98475.94;;;14.96;100.00
61573;BME280;47465;43.094;12.434;2024-03-29T06:12:12;98594.78;;;15.67;100.00
61573;BME280;47465;43.094;12.434;2024-03-29T06:14:38;98597.53;;;15.65;100.00
61573;BME280;47465;43.094;12.434;2024-03-29T06:17:34;98587.50;;;15.88;100.00
61573;BME280;47465;43.094;12.434;2024-03-29T06:20:03;98593.72;;;15.88;100.00
61573;BME280;47465;43.094;12.434;2024-03-29T06:22:30;98519.38;;;15.20;100.00
61573;BME280;47465;43.094;12.434;2024-03-29T06:24:59;98479.34;;;14.81;100.00
61573;BME280;47465;43.094;12.434;2024-03-29T06:27:24;98597.78;;;15.41;100.00
61573;BME280;47465;43.094;12.434;2024-03-29T06:29:50;98606.06;;;15.37;100.00
61573;BME280;47465;43.094;12.434;2024-03-29T06:32:17;98493.53;;;14.45;100.00
61573;BME280;47465;43.094;12.434;2024-03-29T06:34:54;98609.44;;;15.23;100.00
61573;BME280;47465;43.094;12.434;2024-03-29T06:37:21;98607.28;;;15.12;100.00
61573;BME280;47465;43.094;12.434;2024-03-29T06:39:48;98614.41;;;15.31;100.00
61573;BME280;47465;43.094;12.434;2024-03-29T06:42:14;98497.63;;;14.73;100.00
61573;BME280;47465;43.094;12.434;2024-03-29T06:50:51;98602.28;;;15.41;100.00
61573;BME280;47465;43.094;12.434;2024-03-29T06:53:18;98518.31;;;15.06;100.00
61573;BME280;47465;43.094;12.434;2024-03-29T06:55:49;98587.94;;;15.25;100.00
61573;BME280;47465;43.094;12.434;2024-03-29T06:58:16;98550.00;;;15.15;100.00
61573;BME280;47465;43.094;12.434;2024-03-29T07:00:45;98588.38;;;15.69;100.00
61573;BME280;47465;43.094;12.434;2024-03-29T07:03:11;98489.91;;;15.03;100.00
61573;BME280;47465;43.094;12.434;2024-03-29T07:05:37;98591.00;;;15.71;100.00
61573;BME280;47465;43.094;12.434;2024-03-29T07:08:05;98585.81;;;15.85;100.00
61573;BME280;47465;43.094;12.434;2024-03-29T07:10:31;98509.06;;;15.48;100.00
61573;BME280;47465;43.094;12.434;2024-03-29T07:12:57;98572.72;;;15.96;100.00
61573;BME280;47465;43.094;12.434;2024-03-29T07:15:23;98575.97;;;16.03;100.00
61573;BME280;47465;43.094;12.434;2024-03-29T07:17:49;98539.19;;;15.70;100.00
61573;BME280;47465;43.094;12.434;2024-03-29T07:20:16;98583.75;;;16.08;100.00
61573;BME280;47465;43.094;12.434;2024-03-29T07:22:42;98584.47;;;16.11;100.00
61573;BME280;47465;43.094;12.434;2024-03-29T07:25:10;98482.91;;;15.53;100.00
61573;BME280;47465;43.094;12.434;2024-03-29T07:27:36;98587.53;;;16.21;100.00
61573;BME280;47465;43.094;12.434;2024-03-29T07:30:04;98522.78;;;15.94;100.00
61573;BME280;47465;43.094;12.434;2024-03-29T07:32:33;98577.91;;;16.50;100.00
61573;BME280;47465;43.094;12.434;2024-03-29T07:35:01;98584.34;;;16.63;100.00
61573;BME280;47465;43.094;12.434;2024-03-29T07:37:30;98443.75;;;16.01;100.00
61573;BME280;47465;43.094;12.434;2024-03-29T07:40:01;98457.03;;;16.20;100.00
61573;BME280;47465;43.094;12.434;2024-03-29T07:42:31;98561.28;;;16.93;100.00
61573;BME280;47465;43.094;12.434;2024-03-29T07:45:07;98497.38;;;16.50;100.00
61573;BME280;47465;43.094;12.434;2024-03-29T07:47:34;98566.81;;;17.06;100.00
61573;BME280;47465;43.094;12.434;2024-03-29T07:50:00;98575.59;;;17.09;100.00
61573;BME280;47465;43.094;12.434;2024-03-29T07:52:26;98560.84;;;17.16;100.00
61573;BME280;47465;43.094;12.434;2024-03-29T07:54:55;98457.22;;;16.49;100.00
61573;BME280;47465;43.094;12.434;2024-03-29T07:57:24;98564.75;;;17.27;100.00
61573;BME280;47465;43.094;12.434;2024-03-29T07:59:52;98562.44;;;17.35;100.00
61573;BME280;47465;43.094;12.434;2024-03-29T08:02:18;98565.75;;;17.40;100.00
61573;BME280;47465;43.094;12.434;2024-03-29T08:04:44;98473.06;;;16.53;100.00
61573;BME280;47465;43.094;12.434;2024-03-29T08:07:13;98570.88;;;17.13;100.00
61573;BME280;47465;43.094;12.434;2024-03-29T08:09:39;98460.34;;;16.73;100.00
61573;BME280;47465;43.094;12.434;2024-03-29T08:12:06;98567.91;;;17.79;100.00
61573;BME280;47465;43.094;12.434;2024-03-29T08:14:37;98567.63;;;18.14;100.00
61573;BME280;47465;43.094;12.434;2024-03-29T08:17:18;98458.63;;;17.93;100.00
61573;BME280;47465;43.094;12.434;2024-03-29T08:19:44;98561.50;;;18.70;100.00
61573;BME280;47465;43.094;12.434;2024-03-29T08:22:10;98560.84;;;18.37;100.00
61573;BME280;47465;43.094;12.434;2024-03-29T08:24:36;98557.19;;;18.81;100.00
61573;BME280;47465;43.094;12.434;2024-03-29T08:27:03;98565.56;;;19.18;100.00
61573;BME280;47465;43.094;12.434;2024-03-29T08:29:29;98562.56;;;19.23;100.00
61573;BME280;47465;43.094;12.434;2024-03-29T08:31:55;98571.28;;;19.41;100.00
61573;BME280;47465;43.094;12.434;2024-03-29T08:34:23;98544.97;;;18.61;100.00
61573;BME280;47465;43.094;12.434;2024-03-29T08:36:53;98574.06;;;19.12;100.00
61573;BME280;47465;43.094;12.434;2024-03-29T08:39:22;98466.16;;;18.72;100.00
61573;BME280;47465;43.094;12.434;2024-03-29T08:41:48;98479.03;;;18.96;100.00
61573;BME280;47465;43.094;12.434;2024-03-29T08:44:17;98577.81;;;19.78;100.00
61573;BME280;47465;43.094;12.434;2024-03-29T08:46:43;98512.75;;;19.56;100.00
61573;BME280;47465;43.094;12.434;2024-03-29T08:49:12;98507.94;;;19.34;100.00
61573;BME280;47465;43.094;12.434;2024-03-29T08:51:40;98457.78;;;18.91;100.00
61573;BME280;47465;43.094;12.434;2024-03-29T08:54:10;98560.75;;;19.90;100.00
61573;BME280;47465;43.094;12.434;2024-03-29T08:56:36;98551.09;;;20.14;100.00
61573;BME280;47465;43.094;12.434;2024-03-29T08:59:02;98561.03;;;20.39;100.00
61573;BME280;47465;43.094;12.434;2024-03-29T09:01:33;98461.34;;;19.97;100.00
61573;BME280;47465;43.094;12.434;2024-03-29T09:03:59;98558.78;;;20.33;100.00
61573;BME280;47465;43.094;12.434;2024-03-29T09:06:25;98442.78;;;19.80;100.00
61573;BME280;47465;43.094;12.434;2024-03-29T09:08:52;98557.44;;;20.51;100.00
61573;BME280;47465;43.094;12.434;2024-03-29T09:11:19;98543.19;;;20.49;100.00
61573;BME280;47465;43.094;12.434;2024-03-29T09:13:45;98552.06;;;20.25;100.00
61573;BME280;47465;43.094;12.434;2024-03-29T09:16:11;98479.59;;;19.81;100.00
61573;BME280;47465;43.094;12.434;2024-03-29T09:18:37;98554.78;;;20.13;100.00
61573;BME280;47465;43.094;12.434;2024-03-29T09:21:03;98445.03;;;19.20;100.00
61573;BME280;47465;43.094;12.434;2024-03-29T09:23:29;98551.50;;;19.95;100.00
61573;BME280;47465;43.094;12.434;2024-03-29T09:25:57;98501.34;;;19.65;100.00
61573;BME280;47465;43.094;12.434;2024-03-29T09:28:23;98457.44;;;19.63;100.00
61573;BME280;47465;43.094;12.434;2024-03-29T09:30:50;98422.91;;;19.68;100.00
61573;BME280;47465;43.094;12.434;2024-03-29T09:33:16;98464.94;;;20.10;100.00
61573;BME280;47465;43.094;12.434;2024-03-29T09:35:41;98445.81;;;20.14;100.00
61573;BME280;47465;43.094;12.434;2024-03-29T09:38:09;98520.28;;;20.80;100.00
61573;BME280;47465;43.094;12.434;2024-03-29T09:40:35;98525.41;;;20.96;87.18
61573;BME280;47465;43.094;12.434;2024-03-29T09:43:03;98462.50;;;20.44;78.43
61573;BME280;47465;43.094;12.434;2024-03-29T09:45:31;98418.94;;;20.49;69.92
61573;BME280;47465;43.094;12.434;2024-03-29T09:48:01;98516.22;;;21.23;63.31
61573;BME280;47465;43.094;12.434;2024-03-29T09:50:29;98487.72;;;20.82;61.48
61573;BME280;47465;43.094;12.434;2024-03-29T09:52:56;98520.03;;;21.20;60.42
61573;BME280;47465;43.094;12.434;2024-03-29T09:55:27;98520.72;;;21.35;56.53
61573;BME280;47465;43.094;12.434;2024-03-29T09:57:54;98519.47;;;21.52;56.30
61573;BME280;47465;43.094;12.434;2024-03-29T10:00:22;98500.00;;;21.71;54.58
61573;BME280;47465;43.094;12.434;2024-03-29T10:02:49;98506.16;;;21.73;55.19
61573;BME280;47465;43.094;12.434;2024-03-29T10:05:16;98428.06;;;21.20;52.40
61573;BME280;47465;43.094;12.434;2024-03-29T10:07:47;98502.22;;;21.42;54.02
61573;BME280;47465;43.094;12.434;2024-03-29T10:10:13;98435.47;;;20.94;53.36
61573;BME280;47465;43.094;12.434;2024-03-29T10:13:18;98445.72;;;21.37;52.33
61573;BME280;47465;43.094;12.434;2024-03-29T10:15:32;98467.34;;;21.61;51.67
61573;BME280;47465;43.094;12.434;2024-03-29T10:18:08;98490.13;;;21.70;52.26
61573;BME280;47465;43.094;12.434;2024-03-29T10:20:34;98484.06;;;21.90;52.36
61573;BME280;47465;43.094;12.434;2024-03-29T10:23:02;98420.09;;;21.43;52.38
61573;BME280;47465;43.094;12.434;2024-03-29T10:25:34;98405.22;;;21.48;52.32
61573;BME280;47465;43.094;12.434;2024-03-29T10:28:03;98475.31;;;21.98;51.99
61573;BME280;47465;43.094;12.434;2024-03-29T10:30:31;98451.63;;;21.66;51.14
61573;BME280;47465;43.094;12.434;2024-03-29T10:32:57;98476.91;;;21.89;51.02
61573;BME280;47465;43.094;12.434;2024-03-29T10:35:25;98429.94;;;21.55;51.16
61573;BME280;47465;43.094;12.434;2024-03-29T10:37:56;98351.34;;;21.10;50.83
61573;BME280;47465;43.094;12.434;2024-03-29T10:40:26;98384.72;;;21.33;51.13
61573;BME280;47465;43.094;12.434;2024-03-29T10:43:01;98344.13;;;21.22;50.70
61573;BME280;47465;43.094;12.434;2024-03-29T10:45:48;98361.50;;;21.30;51.77
61573;BME280;47465;43.094;12.434;2024-03-29T10:48:16;98446.16;;;21.90;51.57
61573;BME280;47465;43.094;12.434;2024-03-29T10:50:44;98340.19;;;21.50;52.37
61573;BME280;47465;43.094;12.434;2024-03-29T10:53:12;98443.81;;;22.08;51.02
61573;BME280;47465;43.094;12.434;2024-03-29T10:55:42;98449.25;;;22.08;50.67
61573;BME280;47465;43.094;12.434;2024-03-29T10:58:11;98351.81;;;21.39;50.53
61573;BME280;47465;43.094;12.434;2024-03-29T11:00:39;98348.34;;;21.37;50.58
61573;BME280;47465;43.094;12.434;2024-03-29T11:03:16;98423.59;;;21.79;51.14
61573;BME280;47465;43.094;12.434;2024-03-29T11:05:46;98451.94;;;22.08;51.48
61573;BME280;47465;43.094;12.434;2024-03-29T11:08:14;98437.41;;;21.98;51.52
61573;BME280;47465;43.094;12.434;2024-03-29T11:10:49;98441.72;;;22.01;51.30
61573;BME280;47465;43.094;12.434;2024-03-29T11:13:31;98332.84;;;21.17;50.23
61573;BME280;47465;43.094;12.434;2024-03-29T11:16:01;98353.09;;;21.22;49.11
61573;BME280;47465;43.094;12.434;2024-03-29T11:18:32;98438.69;;;21.59;48.87
61573;BME280;47465;43.094;12.434;2024-03-29T11:21:00;98388.28;;;21.33;49.52
61573;BME280;47465;43.094;12.434;2024-03-29T11:23:36;98428.38;;;21.75;50.48
61573;BME280;47465;43.094;12.434;2024-03-29T11:28:59;98422.03;;;21.99;50.52
61573;BME280;47465;43.094;12.434;2024-03-29T11:31:26;98361.97;;;21.71;50.14
61573;BME280;47465;43.094;12.434;2024-03-29T11:33:57;98387.06;;;22.07;49.65
61573;BME280;47465;43.094;12.434;2024-03-29T11:36:25;98301.56;;;21.59;49.90
61573;BME280;47465;43.094;12.434;2024-03-29T11:38:56;98407.03;;;22.17;49.12
61573;BME280;47465;43.094;12.434;2024-03-29T11:41:23;98395.34;;;22.28;49.40
61573;BME280;47465;43.094;12.434;2024-03-29T11:44:04;98335.00;;;22.03;49.81
61573;BME280;47465;43.094;12.434;2024-03-29T11:46:30;98399.03;;;22.38;48.31
61573;BME280;47465;43.094;12.434;2024-03-29T11:49:05;98392.47;;;22.52;48.39
61573;BME280;47465;43.094;12.434;2024-03-29T11:51:34;98385.47;;;22.49;46.50
61573;BME280;47465;43.094;12.434;2024-03-29T11:54:01;98357.19;;;21.97;46.62
61573;BME280;47465;43.094;12.434;2024-03-29T11:56:28;98397.41;;;22.35;47.13
61573;BME280;47465;43.094;12.434;2024-03-29T11:58:54;98329.97;;;22.21;46.67
61573;BME280;47465;43.094;12.434;2024-03-29T12:01:28;98386.06;;;22.64;47.22
61573;BME280;47465;43.094;12.434;2024-03-29T12:03:58;98386.66;;;22.68;47.10
61573;BME280;47465;43.094;12.434;2024-03-29T12:06:36;98379.91;;;22.51;47.97
61573;BME280;47465;43.094;12.434;2024-03-29T12:09:03;98344.38;;;22.33;48.87
61573;BME280;47465;43.094;12.434;2024-03-29T12:11:31;98372.88;;;22.60;48.74
61573;BME280;47465;43.094;12.434;2024-03-29T12:14:02;98379.13;;;22.71;48.49
61573;BME280;47465;43.094;12.434;2024-03-29T12:16:33;98381.91;;;22.49;47.58
61573;BME280;47465;43.094;12.434;2024-03-29T12:19:08;98247.94;;;21.76;48.01
61573;BME280;47465;43.094;12.434;2024-03-29T12:21:36;98371.09;;;22.81;47.42
61573;BME280;47465;43.094;12.434;2024-03-29T12:24:07;98364.91;;;22.90;47.73
61573;BME280;47465;43.094;12.434;2024-03-29T12:26:43;98360.78;;;23.07;46.90
61573;BME280;47465;43.094;12.434;2024-03-29T12:29:16;98367.81;;;22.98;47.38
61573;BME280;47465;43.094;12.434;2024-03-29T12:35:19;98261.91;;;22.14;47.63
61573;BME280;47465;43.094;12.434;2024-03-29T12:37:57;98353.28;;;22.67;46.76
61573;BME280;47465;43.094;12.434;2024-03-29T12:40:35;98278.88;;;22.28;47.90
61573;BME280;47465;43.094;12.434;2024-03-29T12:43:07;98248.72;;;22.21;47.09
61573;BME280;47465;43.094;12.434;2024-03-29T12:45:34;98347.63;;;22.91;47.81
61573;BME280;47465;43.094;12.434;2024-03-29T12:48:02;98304.66;;;22.54;47.35
61573;BME280;47465;43.094;12.434;2024-03-29T12:50:35;98285.22;;;22.49;47.87
61573;BME280;47465;43.094;12.434;2024-03-29T12:53:08;98309.47;;;22.51;47.13
61573;BME280;47465;43.094;12.434;2024-03-29T12:55:35;98231.97;;;22.16;46.98
61573;BME280;47465;43.094;12.434;2024-03-29T12:58:02;98217.22;;;22.09;48.20
61573;BME280;47465;43.094;12.434;2024-03-29T13:00:33;98323.34;;;22.69;48.32
61573;BME280;47465;43.094;12.434;2024-03-29T13:03:12;98201.28;;;21.83;47.98
61573;BME280;47465;43.094;12.434;2024-03-29T13:05:56;98223.66;;;21.85;48.77